Costa Pacifica — ICJA — position and weather

sailwx.info

Track history (hours):
 
Tides and Currents Weather Stations Pressure Air Temp Water Temp Dewpoint Dewpoint Depression Visibility Wind Speed Wind Dir Waves Ship Positions

Costa Pacifica

Last reported at 2020-Apr-02 21:28 UTC. Time now 2020-Apr-02 22:17 UTC.
Position N 44°06' E 009°50'.

Length 290 m; draft 8.3 m.

Type: Passenger vessel. MMSI: 247258100.

Date/timePositionNaut miles runAvg speedWind from/ knotsBaromVisibWave heightAir tempDewpointWater temp
2020-Apr-02 21:28N 44°06' E 009°50'0 0.0
2020-Apr-02 20:58N 44°06' E 009°50'0 0.0
2020-Apr-02 19:28N 44°06' E 009°50'0 0.0
2020-Apr-02 18:58N 44°06' E 009°50'0 0.0
2020-Apr-02 18:28N 44°06' E 009°50'0 0.0
2020-Apr-02 15:28N 44°06' E 009°50'0 0.0
2020-Apr-02 13:28N 44°06' E 009°50'0 0.0
2020-Apr-02 11:58N 44°06' E 009°50'1 0.7
2020-Apr-02 11:00N 44°06' E 009°51'3 6.3
2020-Apr-02 10:30N 44°03' E 009°52'8 8.5
2020-Apr-02 09:30N 43°55' E 009°56'1510.0
2020-Apr-02 08:00N 43°48' E 009°37'713.5
2020-Apr-02 07:30N 43°53' E 009°43'14 6.9
2020-Apr-02 05:28N 44°06' E 009°50'0 0.0
2020-Apr-02 02:28N 44°06' E 009°50'0 0.0
2020-Apr-02 01:58N 44°06' E 009°50'0 0.0
2020-Apr-01 22:58N 44°06' E 009°50'0 0.0
2020-Apr-01 22:28N 44°06' E 009°50'0 0.0
2020-Apr-01 21:28N 44°06' E 009°50'0 0.0
2020-Apr-01 20:58N 44°06' E 009°50'0 0.0
2020-Apr-01 18:28N 44°06' E 009°50'0 0.0
2020-Apr-01 17:58N 44°06' E 009°50'0 0.0
2020-Apr-01 16:58N 44°06' E 009°50'0 0.0
2020-Apr-01 16:28N 44°06' E 009°50'0 0.0
2020-Apr-01 10:28N 44°06' E 009°50'0 0.0
2020-Apr-01 07:58N 44°06' E 009°50'0 0.0
2020-Apr-01 07:28N 44°06' E 009°50'0 0.0
2020-Mar-31 21:58N 44°06' E 009°50'0 0.0
2020-Mar-31 20:58N 44°06' E 009°50'0 0.0
2020-Mar-31 20:28N 44°06' E 009°50'0 0.0
2020-Mar-31 17:58N 44°06' E 009°50'0 0.0
2020-Mar-31 16:28N 44°06' E 009°50'0 0.0
2020-Mar-31 15:58N 44°06' E 009°50'0 0.0
2020-Mar-31 11:28N 44°06' E 009°50'0 0.0
2020-Mar-31 10:58N 44°06' E 009°50'0 0.0
2020-Mar-31 09:58N 44°06' E 009°50'0 0.0
2020-Mar-31 09:28N 44°06' E 009°50'0 0.0
2020-Mar-31 08:28N 44°06' E 009°50'0 0.0
2020-Mar-31 07:28N 44°06' E 009°50'0 0.0
2020-Mar-31 06:28N 44°06' E 009°50'0 0.0
2020-Mar-31 04:58N 44°06' E 009°50'0 0.0
2020-Mar-31 04:28N 44°06' E 009°50'0 0.0
2020-Mar-31 03:28N 44°06' E 009°50'0 0.0
2020-Mar-31 00:58N 44°06' E 009°50'0 0.0
2020-Mar-30 23:28N 44°06' E 009°50'0 0.0
2020-Mar-30 21:28N 44°06' E 009°50'0 0.0
2020-Mar-30 20:58N 44°06' E 009°50'0 0.0
2020-Mar-30 17:28N 44°06' E 009°50'0 0.0
2020-Mar-30 16:28N 44°06' E 009°50'0 0.0
2020-Mar-30 14:28N 44°06' E 009°50'0 0.0
2020-Mar-30 13:58N 44°06' E 009°50'0 0.0
2020-Mar-30 11:58N 44°06' E 009°50'0 0.0
2020-Mar-30 10:28N 44°06' E 009°50'0 0.0
2020-Mar-30 08:28N 44°06' E 009°50'0 0.0
2020-Mar-30 07:58N 44°06' E 009°50'0 0.0
2020-Mar-30 05:58N 44°06' E 009°50'0 0.0
2020-Mar-30 05:28N 44°06' E 009°50'0 0.0
2020-Mar-30 04:28N 44°06' E 009°50'0 0.0
2020-Mar-30 01:58N 44°06' E 009°50'0 0.0
2020-Mar-30 01:28N 44°06' E 009°50'0 0.0
2020-Mar-29 22:28N 44°06' E 009°50'0 0.0
2020-Mar-29 21:28N 44°06' E 009°50'0 0.0
2020-Mar-29 20:28N 44°06' E 009°50'0 0.0
2020-Mar-29 19:25N 44°06' E 009°50'0 0.0
2020-Mar-29 18:58N 44°06' E 009°50'0 0.0
2020-Mar-29 17:58N 44°06' E 009°50'0 0.0
2020-Mar-29 17:28N 44°06' E 009°50'0 0.0
2020-Mar-29 16:28N 44°06' E 009°50'0 0.0
2020-Mar-29 14:28N 44°06' E 009°50'0 0.0
2020-Mar-29 13:28N 44°06' E 009°50'0 0.0
2020-Mar-29 12:58N 44°06' E 009°50'0 0.0
2020-Mar-29 12:28N 44°06' E 009°50'0 0.0
2020-Mar-29 11:28N 44°06' E 009°50'0 0.0
2020-Mar-29 08:58N 44°06' E 009°50'0 0.0
2020-Mar-29 03:28N 44°06' E 009°50'0 0.0
2020-Mar-29 02:28N 44°06' E 009°50'0 0.0
2020-Mar-28 23:58N 44°06' E 009°50'0 0.0
2020-Mar-28 23:28N 44°06' E 009°50'0 0.0
2020-Mar-28 20:58N 44°06' E 009°50'0 0.0
2020-Mar-28 19:28N 44°06' E 009°50'0 0.0
2020-Mar-28 15:28N 44°06' E 009°50'0 0.0
2020-Mar-28 12:28N 44°06' E 009°50'0 0.0
2020-Mar-28 11:55N 44°06' E 009°50'0 0.0
2020-Mar-28 11:28N 44°06' E 009°50'0 0.0
2020-Mar-28 08:28N 44°06' E 009°50'0 0.0
2020-Mar-28 06:28N 44°06' E 009°50'0 0.0
2020-Mar-28 05:58N 44°06' E 009°50'0 0.0
2020-Mar-28 02:58N 44°06' E 009°50'0 0.0
2020-Mar-28 02:28N 44°06' E 009°50'0 0.0
2020-Mar-28 01:58N 44°06' E 009°50'0 0.0
2020-Mar-28 00:58N 44°06' E 009°50'0 0.0
2020-Mar-27 22:28N 44°06' E 009°50'0 0.0
2020-Mar-27 21:28N 44°06' E 009°50'0 0.0
2020-Mar-27 16:58N 44°06' E 009°50'0 0.0
2020-Mar-27 16:28N 44°06' E 009°50'0 0.0
2020-Mar-27 15:58N 44°06' E 009°50'0 0.0
2020-Mar-27 14:58N 44°06' E 009°50'0 0.0
2020-Mar-27 13:28N 44°06' E 009°50'0 0.0
2020-Mar-27 12:28N 44°06' E 009°50'0 0.0
2020-Mar-27 11:58N 44°06' E 009°50'0 0.0
2020-Mar-27 10:30N 44°06' E 009°50'0 0.0
2020-Mar-27 10:00N 44°06' E 009°50'0 0.0
2020-Mar-27 08:00N 44°06' E 009°50'0 0.0
2020-Mar-27 06:00N 44°06' E 009°50'20 7.9
2020-Mar-27 03:30N 43°47' E 009°51'7011.4
2020-Mar-26 21:24N 42°37' E 009°48'611.9
2020-Mar-26 20:52N 42°31' E 009°51'  
Track history (hours):
 
Tides and Currents Weather Stations Pressure Air Temp Water Temp Dewpoint Dewpoint Depression Visibility Wind Speed Wind Dir Waves Ship Positions

Costa Pacifica

Last reported at 2020-Apr-02 21:28 UTC. Time now 2020-Apr-02 22:17 UTC.
Position N 44°06' E 009°50'.

Length 290 m; draft 8.3 m.

Type: Passenger vessel. MMSI: 247258100.

Date/timePositionNaut miles runAvg speedWind from/ knotsBaromVisibWave heightAir tempDewpointWater temp
2020-Apr-02 21:28N 44°06' E 009°50'0 0.0
2020-Apr-02 20:58N 44°06' E 009°50'0 0.0
2020-Apr-02 19:28N 44°06' E 009°50'0 0.0
2020-Apr-02 18:58N 44°06' E 009°50'0 0.0
2020-Apr-02 18:28N 44°06' E 009°50'0 0.0
2020-Apr-02 15:28N 44°06' E 009°50'0 0.0
2020-Apr-02 13:28N 44°06' E 009°50'0 0.0
2020-Apr-02 11:58N 44°06' E 009°50'1 0.7
2020-Apr-02 11:00N 44°06' E 009°51'3 6.3
2020-Apr-02 10:30N 44°03' E 009°52'8 8.5
2020-Apr-02 09:30N 43°55' E 009°56'1510.0
2020-Apr-02 08:00N 43°48' E 009°37'713.5
2020-Apr-02 07:30N 43°53' E 009°43'14 6.9
2020-Apr-02 05:28N 44°06' E 009°50'0 0.0
2020-Apr-02 02:28N 44°06' E 009°50'0 0.0
2020-Apr-02 01:58N 44°06' E 009°50'0 0.0
2020-Apr-01 22:58N 44°06' E 009°50'0 0.0
2020-Apr-01 22:28N 44°06' E 009°50'0 0.0
2020-Apr-01 21:28N 44°06' E 009°50'0 0.0
2020-Apr-01 20:58N 44°06' E 009°50'0 0.0
2020-Apr-01 18:28N 44°06' E 009°50'0 0.0
2020-Apr-01 17:58N 44°06' E 009°50'0 0.0
2020-Apr-01 16:58N 44°06' E 009°50'0 0.0
2020-Apr-01 16:28N 44°06' E 009°50'0 0.0
2020-Apr-01 10:28N 44°06' E 009°50'0 0.0
2020-Apr-01 07:58N 44°06' E 009°50'0 0.0
2020-Apr-01 07:28N 44°06' E 009°50'0 0.0
2020-Mar-31 21:58N 44°06' E 009°50'0 0.0
2020-Mar-31 20:58N 44°06' E 009°50'0 0.0
2020-Mar-31 20:28N 44°06' E 009°50'0 0.0
2020-Mar-31 17:58N 44°06' E 009°50'0 0.0
2020-Mar-31 16:28N 44°06' E 009°50'0 0.0
2020-Mar-31 15:58N 44°06' E 009°50'0 0.0
2020-Mar-31 11:28N 44°06' E 009°50'0 0.0
2020-Mar-31 10:58N 44°06' E 009°50'0 0.0
2020-Mar-31 09:58N 44°06' E 009°50'0 0.0
2020-Mar-31 09:28N 44°06' E 009°50'0 0.0
2020-Mar-31 08:28N 44°06' E 009°50'0 0.0
2020-Mar-31 07:28N 44°06' E 009°50'0 0.0
2020-Mar-31 06:28N 44°06' E 009°50'0 0.0
2020-Mar-31 04:58N 44°06' E 009°50'0 0.0
2020-Mar-31 04:28N 44°06' E 009°50'0 0.0
2020-Mar-31 03:28N 44°06' E 009°50'0 0.0
2020-Mar-31 00:58N 44°06' E 009°50'0 0.0
2020-Mar-30 23:28N 44°06' E 009°50'0 0.0
2020-Mar-30 21:28N 44°06' E 009°50'0 0.0
2020-Mar-30 20:58N 44°06' E 009°50'0 0.0
2020-Mar-30 17:28N 44°06' E 009°50'0 0.0
2020-Mar-30 16:28N 44°06' E 009°50'0 0.0
2020-Mar-30 14:28N 44°06' E 009°50'0 0.0
2020-Mar-30 13:58N 44°06' E 009°50'0 0.0
2020-Mar-30 11:58N 44°06' E 009°50'0 0.0
2020-Mar-30 10:28N 44°06' E 009°50'0 0.0
2020-Mar-30 08:28N 44°06' E 009°50'0 0.0
2020-Mar-30 07:58N 44°06' E 009°50'0 0.0
2020-Mar-30 05:58N 44°06' E 009°50'0 0.0
2020-Mar-30 05:28N 44°06' E 009°50'0 0.0
2020-Mar-30 04:28N 44°06' E 009°50'0 0.0
2020-Mar-30 01:58N 44°06' E 009°50'0 0.0
2020-Mar-30 01:28N 44°06' E 009°50'0 0.0
2020-Mar-29 22:28N 44°06' E 009°50'0 0.0
2020-Mar-29 21:28N 44°06' E 009°50'0 0.0
2020-Mar-29 20:28N 44°06' E 009°50'0 0.0
2020-Mar-29 19:25N 44°06' E 009°50'0 0.0
2020-Mar-29 18:58N 44°06' E 009°50'0 0.0
2020-Mar-29 17:58N 44°06' E 009°50'0 0.0
2020-Mar-29 17:28N 44°06' E 009°50'0 0.0
2020-Mar-29 16:28N 44°06' E 009°50'0 0.0
2020-Mar-29 14:28N 44°06' E 009°50'0 0.0
2020-Mar-29 13:28N 44°06' E 009°50'0 0.0
2020-Mar-29 12:58N 44°06' E 009°50'0 0.0
2020-Mar-29 12:28N 44°06' E 009°50'0 0.0
2020-Mar-29 11:28N 44°06' E 009°50'0 0.0
2020-Mar-29 08:58N 44°06' E 009°50'0 0.0
2020-Mar-29 03:28N 44°06' E 009°50'0 0.0
2020-Mar-29 02:28N 44°06' E 009°50'0 0.0
2020-Mar-28 23:58N 44°06' E 009°50'0 0.0
2020-Mar-28 23:28N 44°06' E 009°50'0 0.0
2020-Mar-28 20:58N 44°06' E 009°50'0 0.0
2020-Mar-28 19:28N 44°06' E 009°50'0 0.0
2020-Mar-28 15:28N 44°06' E 009°50'0 0.0
2020-Mar-28 12:28N 44°06' E 009°50'0 0.0
2020-Mar-28 11:55N 44°06' E 009°50'0 0.0
2020-Mar-28 11:28N 44°06' E 009°50'0 0.0
2020-Mar-28 08:28N 44°06' E 009°50'0 0.0
2020-Mar-28 06:28N 44°06' E 009°50'0 0.0
2020-Mar-28 05:58N 44°06' E 009°50'0 0.0
2020-Mar-28 02:58N 44°06' E 009°50'0 0.0
2020-Mar-28 02:28N 44°06' E 009°50'0 0.0
2020-Mar-28 01:58N 44°06' E 009°50'0 0.0
2020-Mar-28 00:58N 44°06' E 009°50'0 0.0
2020-Mar-27 22:28N 44°06' E 009°50'0 0.0
2020-Mar-27 21:28N 44°06' E 009°50'0 0.0
2020-Mar-27 16:58N 44°06' E 009°50'0 0.0
2020-Mar-27 16:28N 44°06' E 009°50'0 0.0
2020-Mar-27 15:58N 44°06' E 009°50'0 0.0
2020-Mar-27 14:58N 44°06' E 009°50'0 0.0
2020-Mar-27 13:28N 44°06' E 009°50'0 0.0
2020-Mar-27 12:28N 44°06' E 009°50'0 0.0
2020-Mar-27 11:58N 44°06' E 009°50'0 0.0
2020-Mar-27 10:30N 44°06' E 009°50'0 0.0
2020-Mar-27 10:00N 44°06' E 009°50'0 0.0
2020-Mar-27 08:00N 44°06' E 009°50'0 0.0
2020-Mar-27 06:00N 44°06' E 009°50'20 7.9
2020-Mar-27 03:30N 43°47' E 009°51'7011.4
2020-Mar-26 21:24N 42°37' E 009°48'611.9
2020-Mar-26 20:52N 42°31' E 009°51'  

Dump ship's entire track history